Terminal Aerodrome Forecast
Issued by NWS

Home | Current Version | Previous Version | Text Only | Print | Product List | Glossary On
Versions: 1 2 3 4 5 6 7 8 9 10 11 12 13 14 15 16 17 18 19
359
FTUS41 KAKQ 091408 AAA
TAFPHF
TAF AMD
KPHF 091408Z 0914/1012 28007KT 5SM BR BKN005
      TEMPO 0914/0916 P6SM NSW SCT006 OVC040
     FM091600 25011G18KT P6SM BKN050
     FM100000 26009KT P6SM BKN050=

USA.gov is the U.S. government's official web portal to all federal, state and local government web resources and services.